sensor_id;sensor_type;location;lat;lon;timestamp;temperature;humidity
3896;DHT22;1963;48.804;8.358;2022-11-15T00:01:01;9.60;99.90
3896;DHT22;1963;48.804;8.358;2022-11-15T00:03:29;9.60;99.90
3896;DHT22;1963;48.804;8.358;2022-11-15T00:06:01;9.60;99.90
3896;DHT22;1963;48.804;8.358;2022-11-15T00:08:30;9.60;99.90
3896;DHT22;1963;48.804;8.358;2022-11-15T00:10:59;9.70;99.90
3896;DHT22;1963;48.804;8.358;2022-11-15T00:13:29;9.60;99.90
3896;DHT22;1963;48.804;8.358;2022-11-15T00:15:58;9.60;99.90
3896;DHT22;1963;48.804;8.358;2022-11-15T00:18:27;9.60;99.90
3896;DHT22;1963;48.804;8.358;2022-11-15T00:20:55;9.60;99.90
3896;DHT22;1963;48.804;8.358;2022-11-15T00:23:23;9.60;99.90
3896;DHT22;1963;48.804;8.358;2022-11-15T00:25:55;9.60;99.90
3896;DHT22;1963;48.804;8.358;2022-11-15T00:28:24;9.60;99.90
3896;DHT22;1963;48.804;8.358;2022-11-15T00:30:53;9.60;99.90
3896;DHT22;1963;48.804;8.358;2022-11-15T00:33:21;9.60;99.90
3896;DHT22;1963;48.804;8.358;2022-11-15T00:35:49;9.60;99.90
3896;DHT22;1963;48.804;8.358;2022-11-15T00:38:17;9.60;99.90
3896;DHT22;1963;48.804;8.358;2022-11-15T00:40:45;9.60;99.90
3896;DHT22;1963;48.804;8.358;2022-11-15T00:43:13;9.60;99.90
3896;DHT22;1963;48.804;8.358;2022-11-15T00:45:40;9.60;99.90
3896;DHT22;1963;48.804;8.358;2022-11-15T00:48:34;9.60;99.90
3896;DHT22;1963;48.804;8.358;2022-11-15T00:51:02;9.60;99.90
3896;DHT22;1963;48.804;8.358;2022-11-15T00:53:29;9.60;99.90
3896;DHT22;1963;48.804;8.358;2022-11-15T00:55:58;9.60;99.90
3896;DHT22;1963;48.804;8.358;2022-11-15T00:58:26;9.60;99.90
3896;DHT22;1963;48.804;8.358;2022-11-15T01:00:54;9.60;99.90
3896;DHT22;1963;48.804;8.358;2022-11-15T01:03:22;9.60;99.90
3896;DHT22;1963;48.804;8.358;2022-11-15T01:05:51;9.60;99.90
3896;DHT22;1963;48.804;8.358;2022-11-15T01:08:19;9.60;99.90
3896;DHT22;1963;48.804;8.358;2022-11-15T01:10:46;9.60;99.90
3896;DHT22;1963;48.804;8.358;2022-11-15T01:13:14;9.60;99.90
3896;DHT22;1963;48.804;8.358;2022-11-15T01:15:42;9.60;99.90
3896;DHT22;1963;48.804;8.358;2022-11-15T01:18:10;9.60;99.90
3896;DHT22;1963;48.804;8.358;2022-11-15T01:20:40;9.60;99.90
3896;DHT22;1963;48.804;8.358;2022-11-15T01:23:09;9.60;99.90
3896;DHT22;1963;48.804;8.358;2022-11-15T01:25:37;9.60;99.90
3896;DHT22;1963;48.804;8.358;2022-11-15T01:28:05;9.60;99.90
3896;DHT22;1963;48.804;8.358;2022-11-15T01:30:33;9.60;99.90
3896;DHT22;1963;48.804;8.358;2022-11-15T01:33:03;9.60;99.90
3896;DHT22;1963;48.804;8.358;2022-11-15T01:35:30;9.60;99.90
3896;DHT22;1963;48.804;8.358;2022-11-15T01:37:58;9.70;99.90
3896;DHT22;1963;48.804;8.358;2022-11-15T01:40:27;9.70;99.90
3896;DHT22;1963;48.804;8.358;2022-11-15T01:42:55;9.70;99.90
3896;DHT22;1963;48.804;8.358;2022-11-15T01:45:23;9.70;99.90
3896;DHT22;1963;48.804;8.358;2022-11-15T01:47:52;9.70;99.90
3896;DHT22;1963;48.804;8.358;2022-11-15T01:50:24;9.70;99.90
3896;DHT22;1963;48.804;8.358;2022-11-15T01:52:55;9.80;99.90
3896;DHT22;1963;48.804;8.358;2022-11-15T01:55:26;9.70;99.90
3896;DHT22;1963;48.804;8.358;2022-11-15T01:57:59;9.80;99.90
3896;DHT22;1963;48.804;8.358;2022-11-15T02:00:29;9.80;99.90
3896;DHT22;1963;48.804;8.358;2022-11-15T02:02:57;9.80;99.90
3896;DHT22;1963;48.804;8.358;2022-11-15T02:05:25;9.80;99.90
3896;DHT22;1963;48.804;8.358;2022-11-15T02:07:53;9.80;99.90
3896;DHT22;1963;48.804;8.358;2022-11-15T02:10:23;9.80;99.90
3896;DHT22;1963;48.804;8.358;2022-11-15T02:12:51;9.80;99.90
3896;DHT22;1963;48.804;8.358;2022-11-15T02:15:22;9.80;99.90
3896;DHT22;1963;48.804;8.358;2022-11-15T02:18:04;9.80;99.90
3896;DHT22;1963;48.804;8.358;2022-11-15T02:20:52;9.80;99.90
3896;DHT22;1963;48.804;8.358;2022-11-15T02:23:44;9.80;99.90
3896;DHT22;1963;48.804;8.358;2022-11-15T02:26:33;9.80;99.90
3896;DHT22;1963;48.804;8.358;2022-11-15T02:29:05;9.80;99.90
3896;DHT22;1963;48.804;8.358;2022-11-15T02:31:40;9.80;99.90
3896;DHT22;1963;48.804;8.358;2022-11-15T02:34:19;9.80;99.90
3896;DHT22;1963;48.804;8.358;2022-11-15T02:37:00;9.80;99.90
3896;DHT22;1963;48.804;8.358;2022-11-15T02:39:34;9.80;99.90
3896;DHT22;1963;48.804;8.358;2022-11-15T02:42:07;9.80;99.90
3896;DHT22;1963;48.804;8.358;2022-11-15T02:44:57;9.80;99.90
3896;DHT22;1963;48.804;8.358;2022-11-15T02:47:27;9.80;99.90
3896;DHT22;1963;48.804;8.358;2022-11-15T02:50:00;9.80;99.90
3896;DHT22;1963;48.804;8.358;2022-11-15T02:52:29;9.90;99.90
3896;DHT22;1963;48.804;8.358;2022-11-15T02:54:58;9.80;99.90
3896;DHT22;1963;48.804;8.358;2022-11-15T02:57:35;9.90;99.90
3896;DHT22;1963;48.804;8.358;2022-11-15T03:00:07;9.90;99.90
3896;DHT22;1963;48.804;8.358;2022-11-15T03:03:02;9.90;99.90
3896;DHT22;1963;48.804;8.358;2022-11-15T03:08:28;10.00;99.90
3896;DHT22;1963;48.804;8.358;2022-11-15T03:11:03;10.00;99.90
3896;DHT22;1963;48.804;8.358;2022-11-15T03:13:37;10.00;99.90
3896;DHT22;1963;48.804;8.358;2022-11-15T03:16:10;10.00;99.90
3896;DHT22;1963;48.804;8.358;2022-11-15T03:18:47;10.00;99.90
3896;DHT22;1963;48.804;8.358;2022-11-15T03:21:17;10.00;99.90
3896;DHT22;1963;48.804;8.358;2022-11-15T03:23:47;10.10;99.90
3896;DHT22;1963;48.804;8.358;2022-11-15T03:26:17;10.10;99.90
3896;DHT22;1963;48.804;8.358;2022-11-15T03:36:37;9.90;99.90
3896;DHT22;1963;48.804;8.358;2022-11-15T03:39:07;9.80;99.90
3896;DHT22;1963;48.804;8.358;2022-11-15T03:41:39;9.80;99.90
3896;DHT22;1963;48.804;8.358;2022-11-15T03:44:14;9.80;99.90
3896;DHT22;1963;48.804;8.358;2022-11-15T03:46:47;9.70;99.90
3896;DHT22;1963;48.804;8.358;2022-11-15T03:49:21;9.70;99.90
3896;DHT22;1963;48.804;8.358;2022-11-15T03:51:52;9.60;99.90
3896;DHT22;1963;48.804;8.358;2022-11-15T03:54:19;9.60;99.90
3896;DHT22;1963;48.804;8.358;2022-11-15T03:56:47;9.60;99.90
3896;DHT22;1963;48.804;8.358;2022-11-15T03:59:15;9.60;99.90
3896;DHT22;1963;48.804;8.358;2022-11-15T04:01:43;9.60;99.90
3896;DHT22;1963;48.804;8.358;2022-11-15T04:04:11;9.60;99.90
3896;DHT22;1963;48.804;8.358;2022-11-15T04:06:39;9.60;99.90
3896;DHT22;1963;48.804;8.358;2022-11-15T04:09:08;9.60;99.90
3896;DHT22;1963;48.804;8.358;2022-11-15T04:11:36;9.50;99.90
3896;DHT22;1963;48.804;8.358;2022-11-15T04:14:04;9.50;99.90
3896;DHT22;1963;48.804;8.358;2022-11-15T04:16:31;9.50;99.90
3896;DHT22;1963;48.804;8.358;2022-11-15T04:18:59;9.50;99.90
3896;DHT22;1963;48.804;8.358;2022-11-15T04:21:45;9.50;99.90
3896;DHT22;1963;48.804;8.358;2022-11-15T04:24:31;9.50;99.90
3896;DHT22;1963;48.804;8.358;2022-11-15T04:27:00;9.50;99.90
3896;DHT22;1963;48.804;8.358;2022-11-15T04:29:27;9.60;99.90
3896;DHT22;1963;48.804;8.358;2022-11-15T04:32:02;9.60;99.90
3896;DHT22;1963;48.804;8.358;2022-11-15T04:34:30;9.50;99.90
3896;DHT22;1963;48.804;8.358;2022-11-15T04:36:58;9.60;99.90
3896;DHT22;1963;48.804;8.358;2022-11-15T04:39:44;9.50;99.90
3896;DHT22;1963;48.804;8.358;2022-11-15T04:42:14;9.60;99.90
3896;DHT22;1963;48.804;8.358;2022-11-15T04:44:41;9.60;99.90
3896;DHT22;1963;48.804;8.358;2022-11-15T04:47:09;9.50;99.90
3896;DHT22;1963;48.804;8.358;2022-11-15T04:49:37;9.50;99.90
3896;DHT22;1963;48.804;8.358;2022-11-15T04:52:05;9.60;99.90
3896;DHT22;1963;48.804;8.358;2022-11-15T04:54:33;9.60;99.90
3896;DHT22;1963;48.804;8.358;2022-11-15T04:57:02;9.60;99.90
3896;DHT22;1963;48.804;8.358;2022-11-15T04:59:30;9.50;99.90
3896;DHT22;1963;48.804;8.358;2022-11-15T05:01:58;9.60;99.90
3896;DHT22;1963;48.804;8.358;2022-11-15T05:04:26;9.60;99.90
3896;DHT22;1963;48.804;8.358;2022-11-15T05:06:52;9.50;99.90
3896;DHT22;1963;48.804;8.358;2022-11-15T05:09:20;9.60;99.90
3896;DHT22;1963;48.804;8.358;2022-11-15T05:11:48;9.60;99.90
3896;DHT22;1963;48.804;8.358;2022-11-15T05:14:17;9.60;99.90
3896;DHT22;1963;48.804;8.358;2022-11-15T05:16:45;9.60;99.90
3896;DHT22;1963;48.804;8.358;2022-11-15T05:19:13;9.60;99.90
3896;DHT22;1963;48.804;8.358;2022-11-15T05:21:41;9.60;99.90
3896;DHT22;1963;48.804;8.358;2022-11-15T05:24:10;9.60;99.90
3896;DHT22;1963;48.804;8.358;2022-11-15T05:26:38;9.60;99.90
3896;DHT22;1963;48.804;8.358;2022-11-15T05:29:06;9.60;99.90
3896;DHT22;1963;48.804;8.358;2022-11-15T05:34:49;9.60;99.90
3896;DHT22;1963;48.804;8.358;2022-11-15T05:37:17;9.70;99.90
3896;DHT22;1963;48.804;8.358;2022-11-15T05:39:46;9.70;99.90
3896;DHT22;1963;48.804;8.358;2022-11-15T05:42:15;9.70;99.90
3896;DHT22;1963;48.804;8.358;2022-11-15T05:44:46;9.70;99.90
3896;DHT22;1963;48.804;8.358;2022-11-15T05:47:17;9.70;99.90
3896;DHT22;1963;48.804;8.358;2022-11-15T05:49:49;9.70;99.90
3896;DHT22;1963;48.804;8.358;2022-11-15T05:52:21;9.70;99.90
3896;DHT22;1963;48.804;8.358;2022-11-15T05:54:50;9.70;99.90
3896;DHT22;1963;48.804;8.358;2022-11-15T05:57:45;9.70;99.90
3896;DHT22;1963;48.804;8.358;2022-11-15T06:00:17;9.70;99.90
3896;DHT22;1963;48.804;8.358;2022-11-15T06:02:44;9.70;99.90
3896;DHT22;1963;48.804;8.358;2022-11-15T06:05:14;9.70;99.90
3896;DHT22;1963;48.804;8.358;2022-11-15T06:07:41;9.70;99.90
3896;DHT22;1963;48.804;8.358;2022-11-15T06:10:10;9.70;99.90
3896;DHT22;1963;48.804;8.358;2022-11-15T06:12:38;9.70;99.90
3896;DHT22;1963;48.804;8.358;2022-11-15T06:15:07;9.70;99.90
3896;DHT22;1963;48.804;8.358;2022-11-15T06:17:35;9.60;99.90
3896;DHT22;1963;48.804;8.358;2022-11-15T06:20:03;9.60;99.90
3896;DHT22;1963;48.804;8.358;2022-11-15T06:22:33;9.60;99.90
3896;DHT22;1963;48.804;8.358;2022-11-15T06:25:00;9.60;99.90
3896;DHT22;1963;48.804;8.358;2022-11-15T06:27:31;9.60;99.90
3896;DHT22;1963;48.804;8.358;2022-11-15T06:29:59;9.60;99.90
3896;DHT22;1963;48.804;8.358;2022-11-15T06:32:29;9.60;99.90
3896;DHT22;1963;48.804;8.358;2022-11-15T06:34:56;9.60;99.90
3896;DHT22;1963;48.804;8.358;2022-11-15T06:37:24;9.60;99.90
3896;DHT22;1963;48.804;8.358;2022-11-15T06:39:53;9.60;99.90
3896;DHT22;1963;48.804;8.358;2022-11-15T06:42:21;9.60;99.90
3896;DHT22;1963;48.804;8.358;2022-11-15T06:44:49;9.60;99.90
3896;DHT22;1963;48.804;8.358;2022-11-15T06:47:17;9.70;99.90
3896;DHT22;1963;48.804;8.358;2022-11-15T06:49:45;9.70;99.90
3896;DHT22;1963;48.804;8.358;2022-11-15T06:52:13;9.70;99.90
3896;DHT22;1963;48.804;8.358;2022-11-15T06:54:40;9.70;99.90
3896;DHT22;1963;48.804;8.358;2022-11-15T06:57:10;9.70;99.90
3896;DHT22;1963;48.804;8.358;2022-11-15T06:59:38;9.70;99.90
3896;DHT22;1963;48.804;8.358;2022-11-15T07:02:11;9.70;99.90
3896;DHT22;1963;48.804;8.358;2022-11-15T07:04:39;9.70;99.90
3896;DHT22;1963;48.804;8.358;2022-11-15T07:07:07;9.80;99.90
3896;DHT22;1963;48.804;8.358;2022-11-15T07:09:35;9.80;99.90
3896;DHT22;1963;48.804;8.358;2022-11-15T07:12:03;9.80;99.90
3896;DHT22;1963;48.804;8.358;2022-11-15T07:14:35;9.90;99.90
3896;DHT22;1963;48.804;8.358;2022-11-15T07:17:03;9.90;99.90
3896;DHT22;1963;48.804;8.358;2022-11-15T07:19:31;9.90;99.90
3896;DHT22;1963;48.804;8.358;2022-11-15T07:21:59;10.00;99.90
3896;DHT22;1963;48.804;8.358;2022-11-15T07:24:27;10.00;99.90
3896;DHT22;1963;48.804;8.358;2022-11-15T07:26:55;10.00;99.90
3896;DHT22;1963;48.804;8.358;2022-11-15T07:29:23;10.00;99.90
3896;DHT22;1963;48.804;8.358;2022-11-15T07:31:52;10.00;99.90
3896;DHT22;1963;48.804;8.358;2022-11-15T07:34:20;10.10;99.90
3896;DHT22;1963;48.804;8.358;2022-11-15T07:36:48;10.10;99.90
3896;DHT22;1963;48.804;8.358;2022-11-15T07:39:16;10.20;99.90
3896;DHT22;1963;48.804;8.358;2022-11-15T07:41:44;10.10;99.90
3896;DHT22;1963;48.804;8.358;2022-11-15T07:44:14;10.10;99.90
3896;DHT22;1963;48.804;8.358;2022-11-15T07:46:42;10.20;99.90
3896;DHT22;1963;48.804;8.358;2022-11-15T07:49:11;10.20;99.90
3896;DHT22;1963;48.804;8.358;2022-11-15T07:51:39;10.20;99.90
3896;DHT22;1963;48.804;8.358;2022-11-15T07:54:07;10.20;99.90
3896;DHT22;1963;48.804;8.358;2022-11-15T07:56:34;10.30;99.90
3896;DHT22;1963;48.804;8.358;2022-11-15T07:59:02;10.30;99.90
3896;DHT22;1963;48.804;8.358;2022-11-15T08:01:30;10.40;99.90
3896;DHT22;1963;48.804;8.358;2022-11-15T08:03:58;10.40;99.90
3896;DHT22;1963;48.804;8.358;2022-11-15T08:06:27;10.40;99.90
3896;DHT22;1963;48.804;8.358;2022-11-15T08:08:55;10.40;99.90
3896;DHT22;1963;48.804;8.358;2022-11-15T08:11:23;10.40;99.90
3896;DHT22;1963;48.804;8.358;2022-11-15T08:13:52;10.50;99.90
3896;DHT22;1963;48.804;8.358;2022-11-15T08:16:19;10.60;99.90
3896;DHT22;1963;48.804;8.358;2022-11-15T08:18:48;10.60;99.90
3896;DHT22;1963;48.804;8.358;2022-11-15T08:21:20;10.70;99.90
3896;DHT22;1963;48.804;8.358;2022-11-15T08:23:49;10.80;99.90
3896;DHT22;1963;48.804;8.358;2022-11-15T08:26:18;10.80;99.90
3896;DHT22;1963;48.804;8.358;2022-11-15T08:28:46;10.90;99.90
3896;DHT22;1963;48.804;8.358;2022-11-15T08:31:15;11.00;99.90
3896;DHT22;1963;48.804;8.358;2022-11-15T08:33:44;11.10;99.90
3896;DHT22;1963;48.804;8.358;2022-11-15T08:36:14;11.20;99.90
3896;DHT22;1963;48.804;8.358;2022-11-15T08:38:42;11.40;99.90
3896;DHT22;1963;48.804;8.358;2022-11-15T08:41:14;11.50;99.90
3896;DHT22;1963;48.804;8.358;2022-11-15T08:43:43;11.60;99.90
3896;DHT22;1963;48.804;8.358;2022-11-15T08:46:12;11.60;99.90
3896;DHT22;1963;48.804;8.358;2022-11-15T08:48:41;11.70;99.90
3896;DHT22;1963;48.804;8.358;2022-11-15T08:51:09;11.80;99.90
3896;DHT22;1963;48.804;8.358;2022-11-15T08:53:37;11.90;99.90
3896;DHT22;1963;48.804;8.358;2022-11-15T08:56:07;12.00;99.90
3896;DHT22;1963;48.804;8.358;2022-11-15T08:58:37;12.00;99.90
3896;DHT22;1963;48.804;8.358;2022-11-15T09:01:05;12.10;99.90
3896;DHT22;1963;48.804;8.358;2022-11-15T09:03:35;12.10;99.90
3896;DHT22;1963;48.804;8.358;2022-11-15T09:06:03;12.20;99.90
3896;DHT22;1963;48.804;8.358;2022-11-15T09:08:37;12.20;99.90
3896;DHT22;1963;48.804;8.358;2022-11-15T09:11:17;12.30;99.90
3896;DHT22;1963;48.804;8.358;2022-11-15T09:13:48;12.40;99.90
3896;DHT22;1963;48.804;8.358;2022-11-15T09:16:16;12.40;99.90
3896;DHT22;1963;48.804;8.358;2022-11-15T09:18:43;12.30;99.90
3896;DHT22;1963;48.804;8.358;2022-11-15T09:21:12;12.30;99.90
3896;DHT22;1963;48.804;8.358;2022-11-15T09:23:40;12.40;99.90
3896;DHT22;1963;48.804;8.358;2022-11-15T09:26:08;12.40;99.90
3896;DHT22;1963;48.804;8.358;2022-11-15T09:28:37;12.40;99.90
3896;DHT22;1963;48.804;8.358;2022-11-15T09:31:10;12.40;99.90
3896;DHT22;1963;48.804;8.358;2022-11-15T09:33:43;12.40;99.90
3896;DHT22;1963;48.804;8.358;2022-11-15T09:36:22;12.40;99.90
3896;DHT22;1963;48.804;8.358;2022-11-15T09:39:11;12.40;99.90
3896;DHT22;1963;48.804;8.358;2022-11-15T09:45:06;12.50;99.90
3896;DHT22;1963;48.804;8.358;2022-11-15T09:48:13;12.50;99.90
3896;DHT22;1963;48.804;8.358;2022-11-15T09:50:48;12.60;99.90
3896;DHT22;1963;48.804;8.358;2022-11-15T09:53:36;12.50;99.90
3896;DHT22;1963;48.804;8.358;2022-11-15T09:57:09;12.60;99.90
3896;DHT22;1963;48.804;8.358;2022-11-15T10:00:08;12.60;99.90
3896;DHT22;1963;48.804;8.358;2022-11-15T10:03:11;12.60;99.90
3896;DHT22;1963;48.804;8.358;2022-11-15T10:05:41;12.60;99.90
3896;DHT22;1963;48.804;8.358;2022-11-15T10:08:31;12.60;99.90
3896;DHT22;1963;48.804;8.358;2022-11-15T10:11:02;12.60;99.90
3896;DHT22;1963;48.804;8.358;2022-11-15T10:13:52;12.70;99.90
3896;DHT22;1963;48.804;8.358;2022-11-15T10:19:22;12.70;99.90
3896;DHT22;1963;48.804;8.358;2022-11-15T10:21:59;12.60;99.90
3896;DHT22;1963;48.804;8.358;2022-11-15T10:24:33;12.60;99.90
3896;DHT22;1963;48.804;8.358;2022-11-15T10:27:08;12.60;99.90
3896;DHT22;1963;48.804;8.358;2022-11-15T10:29:42;12.60;99.90
3896;DHT22;1963;48.804;8.358;2022-11-15T10:32:11;12.60;99.90
3896;DHT22;1963;48.804;8.358;2022-11-15T10:34:41;12.60;99.90
3896;DHT22;1963;48.804;8.358;2022-11-15T10:37:09;12.60;99.90
3896;DHT22;1963;48.804;8.358;2022-11-15T10:39:37;12.60;99.90
3896;DHT22;1963;48.804;8.358;2022-11-15T10:42:18;12.70;99.90
3896;DHT22;1963;48.804;8.358;2022-11-15T10:44:46;12.70;99.90
3896;DHT22;1963;48.804;8.358;2022-11-15T10:47:28;12.80;99.90
3896;DHT22;1963;48.804;8.358;2022-11-15T10:50:25;12.80;99.90
3896;DHT22;1963;48.804;8.358;2022-11-15T10:52:54;12.70;99.90
3896;DHT22;1963;48.804;8.358;2022-11-15T10:55:25;12.80;99.90
3896;DHT22;1963;48.804;8.358;2022-11-15T10:57:58;12.80;99.90
3896;DHT22;1963;48.804;8.358;2022-11-15T11:00:30;12.90;99.90
3896;DHT22;1963;48.804;8.358;2022-11-15T11:03:00;12.80;99.90
3896;DHT22;1963;48.804;8.358;2022-11-15T11:05:40;12.90;99.90
3896;DHT22;1963;48.804;8.358;2022-11-15T11:08:23;13.00;99.90
3896;DHT22;1963;48.804;8.358;2022-11-15T11:10:56;13.00;99.90
3896;DHT22;1963;48.804;8.358;2022-11-15T11:13:33;13.00;99.90
3896;DHT22;1963;48.804;8.358;2022-11-15T11:16:16;13.10;99.90
3896;DHT22;1963;48.804;8.358;2022-11-15T11:18:51;13.20;99.90
3896;DHT22;1963;48.804;8.358;2022-11-15T11:21:29;13.30;99.90
3896;DHT22;1963;48.804;8.358;2022-11-15T11:24:10;13.30;99.90
3896;DHT22;1963;48.804;8.358;2022-11-15T11:26:45;13.40;99.90
3896;DHT22;1963;48.804;8.358;2022-11-15T11:29:31;13.50;99.90
3896;DHT22;1963;48.804;8.358;2022-11-15T11:32:22;13.50;99.90
3896;DHT22;1963;48.804;8.358;2022-11-15T11:34:57;13.50;99.90
3896;DHT22;1963;48.804;8.358;2022-11-15T11:37:33;13.60;99.90
3896;DHT22;1963;48.804;8.358;2022-11-15T11:40:16;13.60;99.90
3896;DHT22;1963;48.804;8.358;2022-11-15T11:42:54;13.70;99.90
3896;DHT22;1963;48.804;8.358;2022-11-15T11:45:44;13.70;99.90
3896;DHT22;1963;48.804;8.358;2022-11-15T11:48:27;13.70;99.90
3896;DHT22;1963;48.804;8.358;2022-11-15T11:51:07;13.80;99.90
3896;DHT22;1963;48.804;8.358;2022-11-15T11:53:42;13.80;99.90
3896;DHT22;1963;48.804;8.358;2022-11-15T11:56:19;13.90;99.90
3896;DHT22;1963;48.804;8.358;2022-11-15T11:58:50;13.90;99.90
3896;DHT22;1963;48.804;8.358;2022-11-15T12:01:24;14.00;99.90
3896;DHT22;1963;48.804;8.358;2022-11-15T12:03:56;14.00;99.90
3896;DHT22;1963;48.804;8.358;2022-11-15T12:06:32;14.00;99.90
3896;DHT22;1963;48.804;8.358;2022-11-15T12:09:07;14.10;99.90
3896;DHT22;1963;48.804;8.358;2022-11-15T12:11:48;14.10;99.90
3896;DHT22;1963;48.804;8.358;2022-11-15T12:14:29;14.20;99.90
3896;DHT22;1963;48.804;8.358;2022-11-15T12:16:59;14.20;99.90
3896;DHT22;1963;48.804;8.358;2022-11-15T12:19:28;14.20;99.90
3896;DHT22;1963;48.804;8.358;2022-11-15T12:22:01;14.30;99.90
3896;DHT22;1963;48.804;8.358;2022-11-15T12:24:37;14.30;99.90
3896;DHT22;1963;48.804;8.358;2022-11-15T12:27:11;14.30;99.90
3896;DHT22;1963;48.804;8.358;2022-11-15T12:29:49;14.40;99.90
3896;DHT22;1963;48.804;8.358;2022-11-15T12:32:25;14.40;99.90
3896;DHT22;1963;48.804;8.358;2022-11-15T12:34:54;14.40;99.90
3896;DHT22;1963;48.804;8.358;2022-11-15T12:37:54;14.40;99.90
3896;DHT22;1963;48.804;8.358;2022-11-15T12:40:32;14.50;99.90
3896;DHT22;1963;48.804;8.358;2022-11-15T12:45:47;14.50;99.90
3896;DHT22;1963;48.804;8.358;2022-11-15T12:48:46;14.50;99.90
3896;DHT22;1963;48.804;8.358;2022-11-15T12:51:14;14.60;99.90
3896;DHT22;1963;48.804;8.358;2022-11-15T12:53:42;14.60;99.90
3896;DHT22;1963;48.804;8.358;2022-11-15T12:56:22;14.60;99.90
3896;DHT22;1963;48.804;8.358;2022-11-15T12:58:53;14.70;99.90
3896;DHT22;1963;48.804;8.358;2022-11-15T13:04:34;14.80;99.90
3896;DHT22;1963;48.804;8.358;2022-11-15T13:07:04;14.90;99.90
3896;DHT22;1963;48.804;8.358;2022-11-15T13:09:54;14.90;99.90
3896;DHT22;1963;48.804;8.358;2022-11-15T13:12:49;14.90;99.90
3896;DHT22;1963;48.804;8.358;2022-11-15T13:15:38;14.90;99.90
3896;DHT22;1963;48.804;8.358;2022-11-15T13:18:32;14.80;99.90
3896;DHT22;1963;48.804;8.358;2022-11-15T13:21:01;14.80;99.90
3896;DHT22;1963;48.804;8.358;2022-11-15T13:23:53;14.90;99.90
3896;DHT22;1963;48.804;8.358;2022-11-15T13:26:21;14.90;99.90
3896;DHT22;1963;48.804;8.358;2022-11-15T13:28:51;14.90;99.90
3896;DHT22;1963;48.804;8.358;2022-11-15T13:31:27;14.90;99.90
3896;DHT22;1963;48.804;8.358;2022-11-15T13:33:58;14.90;99.90
3896;DHT22;1963;48.804;8.358;2022-11-15T13:36:28;15.00;99.90
3896;DHT22;1963;48.804;8.358;2022-11-15T13:39:00;15.00;99.90
3896;DHT22;1963;48.804;8.358;2022-11-15T13:41:30;15.00;99.90
3896;DHT22;1963;48.804;8.358;2022-11-15T13:44:00;15.10;99.90
3896;DHT22;1963;48.804;8.358;2022-11-15T13:46:30;15.00;99.90
3896;DHT22;1963;48.804;8.358;2022-11-15T13:49:02;15.10;99.90
3896;DHT22;1963;48.804;8.358;2022-11-15T13:51:37;15.00;99.90
3896;DHT22;1963;48.804;8.358;2022-11-15T13:54:16;15.00;99.90
3896;DHT22;1963;48.804;8.358;2022-11-15T13:56:49;15.00;99.90
3896;DHT22;1963;48.804;8.358;2022-11-15T13:59:24;14.90;99.90
3896;DHT22;1963;48.804;8.358;2022-11-15T14:01:53;15.00;99.90
3896;DHT22;1963;48.804;8.358;2022-11-15T14:04:24;15.10;99.90
3896;DHT22;1963;48.804;8.358;2022-11-15T14:06:54;15.00;99.90
3896;DHT22;1963;48.804;8.358;2022-11-15T14:09:34;14.90;99.90
3896;DHT22;1963;48.804;8.358;2022-11-15T14:12:25;14.90;99.90
3896;DHT22;1963;48.804;8.358;2022-11-15T14:14:55;14.80;99.90
3896;DHT22;1963;48.804;8.358;2022-11-15T14:17:34;14.90;99.90
3896;DHT22;1963;48.804;8.358;2022-11-15T14:22:51;14.80;99.90
3896;DHT22;1963;48.804;8.358;2022-11-15T14:25:20;14.80;99.90
3896;DHT22;1963;48.804;8.358;2022-11-15T14:28:09;14.80;99.90
3896;DHT22;1963;48.804;8.358;2022-11-15T14:30:40;14.80;99.90
3896;DHT22;1963;48.804;8.358;2022-11-15T14:33:22;14.70;99.90
3896;DHT22;1963;48.804;8.358;2022-11-15T14:35:50;14.70;99.90
3896;DHT22;1963;48.804;8.358;2022-11-15T14:38:18;14.80;99.90
3896;DHT22;1963;48.804;8.358;2022-11-15T14:40:46;14.70;99.90
3896;DHT22;1963;48.804;8.358;2022-11-15T14:43:15;14.70;99.90
3896;DHT22;1963;48.804;8.358;2022-11-15T14:45:44;14.60;99.90
3896;DHT22;1963;48.804;8.358;2022-11-15T14:48:12;14.50;99.90
3896;DHT22;1963;48.804;8.358;2022-11-15T14:50:50;14.60;99.90
3896;DHT22;1963;48.804;8.358;2022-11-15T14:53:25;14.50;99.90
3896;DHT22;1963;48.804;8.358;2022-11-15T14:56:07;14.50;99.90
3896;DHT22;1963;48.804;8.358;2022-11-15T14:58:41;14.40;99.90
3896;DHT22;1963;48.804;8.358;2022-11-15T15:01:17;14.30;99.90
3896;DHT22;1963;48.804;8.358;2022-11-15T15:03:47;14.20;99.90
3896;DHT22;1963;48.804;8.358;2022-11-15T15:06:15;14.20;99.90
3896;DHT22;1963;48.804;8.358;2022-11-15T15:08:44;14.10;99.90
3896;DHT22;1963;48.804;8.358;2022-11-15T15:11:16;14.10;99.90
3896;DHT22;1963;48.804;8.358;2022-11-15T15:13:44;14.00;99.90
3896;DHT22;1963;48.804;8.358;2022-11-15T15:16:13;13.90;99.90
3896;DHT22;1963;48.804;8.358;2022-11-15T15:18:41;13.90;99.90
3896;DHT22;1963;48.804;8.358;2022-11-15T15:23:43;13.90;99.90
3896;DHT22;1963;48.804;8.358;2022-11-15T15:26:11;13.80;99.90
3896;DHT22;1963;48.804;8.358;2022-11-15T15:28:39;13.70;99.90
3896;DHT22;1963;48.804;8.358;2022-11-15T15:31:08;13.70;99.90
3896;DHT22;1963;48.804;8.358;2022-11-15T15:33:38;13.70;99.90
3896;DHT22;1963;48.804;8.358;2022-11-15T15:36:10;13.60;99.90
3896;DHT22;1963;48.804;8.358;2022-11-15T15:38:39;13.60;99.90
3896;DHT22;1963;48.804;8.358;2022-11-15T15:41:10;13.60;99.90
3896;DHT22;1963;48.804;8.358;2022-11-15T15:43:38;13.60;99.90
3896;DHT22;1963;48.804;8.358;2022-11-15T15:46:08;13.60;99.90
3896;DHT22;1963;48.804;8.358;2022-11-15T15:48:38;13.50;99.90
3896;DHT22;1963;48.804;8.358;2022-11-15T15:51:07;13.50;99.90
3896;DHT22;1963;48.804;8.358;2022-11-15T15:53:45;13.50;99.90
3896;DHT22;1963;48.804;8.358;2022-11-15T15:56:13;13.50;99.90
3896;DHT22;1963;48.804;8.358;2022-11-15T15:58:41;13.40;99.90
3896;DHT22;1963;48.804;8.358;2022-11-15T16:01:09;13.40;99.90
3896;DHT22;1963;48.804;8.358;2022-11-15T16:03:38;13.30;99.90
3896;DHT22;1963;48.804;8.358;2022-11-15T16:06:32;13.30;99.90
3896;DHT22;1963;48.804;8.358;2022-11-15T16:09:00;13.20;99.90
3896;DHT22;1963;48.804;8.358;2022-11-15T16:11:45;13.10;99.90
3896;DHT22;1963;48.804;8.358;2022-11-15T16:14:13;13.10;99.90
3896;DHT22;1963;48.804;8.358;2022-11-15T16:16:41;13.10;99.90
3896;DHT22;1963;48.804;8.358;2022-11-15T16:19:10;13.10;99.90
3896;DHT22;1963;48.804;8.358;2022-11-15T16:21:39;13.00;99.90
3896;DHT22;1963;48.804;8.358;2022-11-15T16:24:07;12.90;99.90
3896;DHT22;1963;48.804;8.358;2022-11-15T16:26:34;12.90;99.90
3896;DHT22;1963;48.804;8.358;2022-11-15T16:29:03;12.80;99.90
3896;DHT22;1963;48.804;8.358;2022-11-15T16:31:33;12.90;99.90
3896;DHT22;1963;48.804;8.358;2022-11-15T16:34:01;12.80;99.90
3896;DHT22;1963;48.804;8.358;2022-11-15T16:36:32;12.80;99.90
3896;DHT22;1963;48.804;8.358;2022-11-15T16:39:01;12.80;99.90
3896;DHT22;1963;48.804;8.358;2022-11-15T16:41:31;12.70;99.90
3896;DHT22;1963;48.804;8.358;2022-11-15T16:43:58;12.70;99.90
3896;DHT22;1963;48.804;8.358;2022-11-15T16:46:27;12.70;99.90
3896;DHT22;1963;48.804;8.358;2022-11-15T16:48:55;12.60;99.90
3896;DHT22;1963;48.804;8.358;2022-11-15T16:51:23;12.60;99.90
3896;DHT22;1963;48.804;8.358;2022-11-15T16:53:52;12.60;99.90
3896;DHT22;1963;48.804;8.358;2022-11-15T16:56:23;12.50;99.90
3896;DHT22;1963;48.804;8.358;2022-11-15T16:58:51;12.50;99.90
3896;DHT22;1963;48.804;8.358;2022-11-15T17:01:23;12.50;99.90
3896;DHT22;1963;48.804;8.358;2022-11-15T17:03:51;12.50;99.90
3896;DHT22;1963;48.804;8.358;2022-11-15T17:06:20;12.50;99.90
3896;DHT22;1963;48.804;8.358;2022-11-15T17:08:48;12.50;99.90
3896;DHT22;1963;48.804;8.358;2022-11-15T17:11:20;12.40;99.90